Time;durP1;ratioP1;P1;durP2;ratioP2;P2;SDS_P1;SDS_P2;PMS_P1;PMS_P2;Temp;Humidity;BMP_temperature;BMP_pressure;BME280_temperature;BME280_humidity;BME280_pressure;Samples;Min_cycle;Max_cycle;Signal;HPM_P1;HPM_P2
2022/02/01 00:01:34;;;;;;;3.30;2.10;;;2.20;99.90;;;;;;5017572;28;20144;-80
2022/02/01 00:04:04;;;;;;;3.58;2.67;;;2.20;99.90;;;;;;5041851;28;20018;-81
2022/02/01 00:12:01;;;;;;;2.90;1.60;;;2.20;99.90;;;;;;5021301;28;20032;-81
2022/02/01 00:14:52;;;;;;;3.10;1.88;;;2.20;99.90;;;;;;5023009;28;20028;-81
2022/02/01 00:19:59;;;;;;;3.35;2.13;;;2.20;99.90;;;;;;5041118;28;20022;-80
2022/02/01 00:38:23;;;;;;;7.35;1.70;;;2.10;99.90;;;;;;5045759;28;20026;-81
2022/02/01 00:40:54;;;;;;;2.65;1.30;;;2.10;99.90;;;;;;5042918;28;20104;-81
2022/02/01 00:43:21;;;;;;;3.25;1.38;;;2.00;99.90;;;;;;5046613;28;20022;-79
2022/02/01 00:45:46;;;;;;;2.85;1.20;;;2.00;99.90;;;;;;5023548;28;20104;-79
2022/02/01 00:48:12;;;;;;;2.85;1.10;;;2.00;99.90;;;;;;5045174;28;20108;-80
2022/02/01 00:50:38;;;;;;;1.48;0.90;;;2.00;99.90;;;;;;5048534;28;20025;-80
2022/02/01 00:53:04;;;;;;;3.90;0.88;;;2.00;99.90;;;;;;5049819;28;20474;-81
2022/02/01 00:55:30;;;;;;;0.80;0.80;;;1.90;99.90;;;;;;5049712;28;20022;-81
2022/02/01 00:57:55;;;;;;;2.25;1.13;;;1.90;99.90;;;;;;5048922;28;20029;-81
2022/02/01 01:00:21;;;;;;;1.98;1.40;;;1.90;99.90;;;;;;5039282;28;20037;-82
2022/02/01 01:02:47;;;;;;;1.65;0.98;;;1.80;99.90;;;;;;5036024;28;20049;-81
2022/02/01 01:05:13;;;;;;;0.82;0.82;;;1.80;99.90;;;;;;5044188;28;20022;-81
2022/02/01 01:07:38;;;;;;;2.17;0.98;;;1.80;99.90;;;;;;5043223;28;20032;-81
2022/02/01 01:10:07;;;;;;;1.40;0.80;;;1.80;99.90;;;;;;5021494;28;20025;-81
2022/02/01 01:12:38;;;;;;;1.48;0.95;;;1.80;99.90;;;;;;5021984;28;20021;-81
2022/02/01 01:15:15;;;;;;;1.10;0.73;;;1.80;99.90;;;;;;5039448;28;20359;-81
2022/02/01 01:18:21;;;;;;;2.33;0.80;;;1.70;99.90;;;;;;5039136;28;20399;-81
2022/02/01 01:45:17;;;;;;;1.23;1.10;;;1.30;99.90;;;;;;5042568;28;20040;-80
2022/02/01 01:55:39;;;;;;;3.13;2.10;;;1.40;99.90;;;;;;5043913;28;20033;-80
2022/02/01 01:58:06;;;;;;;2.20;1.67;;;1.40;99.90;;;;;;5025115;28;20087;-80
2022/02/01 02:03:30;;;;;;;2.80;2.08;;;1.50;99.90;;;;;;5019275;28;20097;-81
2022/02/01 02:05:56;;;;;;;2.63;2.25;;;1.50;99.90;;;;;;5005669;28;20030;-81
2022/02/01 02:08:22;;;;;;;4.53;1.90;;;1.50;99.90;;;;;;5005652;28;20022;-81
2022/02/01 02:11:10;;;;;;;4.68;2.40;;;1.50;99.90;;;;;;5005861;28;20025;-81
2022/02/01 02:16:23;;;;;;;2.28;2.08;;;1.60;99.90;;;;;;5023132;28;20029;-81
2022/02/01 02:18:49;;;;;;;3.85;2.42;;;1.60;99.90;;;;;;5004108;28;20471;-82
2022/02/01 02:21:18;;;;;;;4.30;2.17;;;1.60;99.90;;;;;;5004492;28;20050;-80
2022/02/01 02:23:44;;;;;;;4.65;2.80;;;1.60;99.90;;;;;;5004279;28;20026;-79
2022/02/01 02:26:15;;;;;;;2.70;2.50;;;1.60;99.90;;;;;;5023745;28;20056;-79
2022/02/01 02:28:41;;;;;;;4.53;2.90;;;1.60;99.90;;;;;;5012982;28;20034;-82
2022/02/01 02:31:07;;;;;;;3.90;2.78;;;1.70;99.90;;;;;;5014226;28;20036;-79
2022/02/01 02:33:33;;;;;;;3.67;3.03;;;1.70;99.90;;;;;;5027075;28;20032;-79
2022/02/01 02:36:10;;;;;;;5.13;3.40;;;1.70;99.90;;;;;;5031470;28;20032;-80
2022/02/01 02:38:47;;;;;;;5.63;3.42;;;1.70;99.90;;;;;;5030513;28;20413;-81
2022/02/01 02:46:44;;;;;;;5.43;4.10;;;1.80;99.90;;;;;;5041301;28;20056;-83
2022/02/01 02:49:15;;;;;;;4.35;3.65;;;1.70;99.90;;;;;;5022417;28;20040;-83
2022/02/01 02:51:42;;;;;;;5.77;4.53;;;1.70;99.90;;;;;;5039031;28;20112;-83
2022/02/01 02:54:10;;;;;;;4.38;3.75;;;1.80;99.90;;;;;;5038032;28;20224;-82
2022/02/01 02:56:36;;;;;;;5.72;4.30;;;1.80;99.90;;;;;;5020159;28;20029;-83
2022/02/01 02:59:02;;;;;;;6.10;4.28;;;1.80;99.90;;;;;;5019116;28;20060;-83
2022/02/01 03:01:29;;;;;;;4.97;4.47;;;1.80;99.90;;;;;;5011989;28;20636;-82
2022/02/01 03:03:55;;;;;;;4.60;4.10;;;1.80;99.90;;;;;;5016222;28;20446;-83
2022/02/01 03:06:21;;;;;;;7.50;3.67;;;1.90;99.90;;;;;;5021133;28;20041;-82
2022/02/01 03:08:47;;;;;;;5.57;4.53;;;1.90;99.90;;;;;;5019498;28;20398;-84
2022/02/01 03:11:15;;;;;;;6.10;3.90;;;1.80;99.90;;;;;;5018535;28;20376;-84
2022/02/01 03:13:48;;;;;;;5.85;3.95;;;1.80;99.90;;;;;;5029427;28;20014;-82
2022/02/01 03:16:32;;;;;;;6.55;4.82;;;1.80;99.90;;;;;;5036048;28;20109;-83
2022/02/01 03:21:42;;;;;;;9.65;4.70;;;1.80;99.90;;;;;;5025643;28;20356;-84
2022/02/01 03:24:08;;;;;;;4.93;3.75;;;1.80;99.90;;;;;;5034849;28;20054;-81
2022/02/01 03:26:34;;;;;;;6.95;4.20;;;1.80;99.90;;;;;;5031879;28;20033;-84
2022/02/01 03:28:59;;;;;;;6.38;4.45;;;1.90;99.90;;;;;;5019886;28;20042;-84
2022/02/01 03:31:25;;;;;;;5.47;4.97;;;1.80;99.90;;;;;;5023488;28;20135;-82
2022/02/01 03:33:51;;;;;;;10.13;6.60;;;1.80;99.90;;;;;;5020584;28;20036;-83
2022/02/01 03:36:16;;;;;;;5.57;4.63;;;1.80;99.90;;;;;;5038677;28;20018;-84
2022/02/01 03:38:42;;;;;;;5.35;4.47;;;1.80;99.90;;;;;;5020213;28;20083;-83
2022/02/01 03:41:08;;;;;;;5.43;4.07;;;1.80;99.90;;;;;;5020744;28;20078;-84
2022/02/01 03:43:34;;;;;;;7.15;4.15;;;1.80;99.90;;;;;;5021096;28;20057;-83
2022/02/01 03:46:00;;;;;;;6.38;5.07;;;1.80;99.90;;;;;;5039356;28;20022;-80
2022/02/01 03:48:25;;;;;;;7.65;4.53;;;1.80;99.90;;;;;;5038909;28;20021;-80
2022/02/01 03:50:51;;;;;;;5.32;4.07;;;1.80;99.90;;;;;;5044489;28;20029;-82
2022/02/01 03:53:18;;;;;;;7.13;4.88;;;1.80;99.90;;;;;;5038270;28;20458;-82
2022/02/01 03:55:43;;;;;;;6.28;4.93;;;1.70;99.90;;;;;;5019557;28;20029;-82
2022/02/01 03:58:09;;;;;;;6.68;5.20;;;1.70;99.90;;;;;;5018095;28;20037;-83
2022/02/01 04:00:35;;;;;;;6.50;4.85;;;1.70;99.90;;;;;;5011691;28;20022;-84
2022/02/01 04:03:04;;;;;;;7.68;5.07;;;1.70;99.90;;;;;;5028176;28;20676;-84
2022/02/01 04:05:33;;;;;;;7.05;4.90;;;1.70;99.90;;;;;;5019877;28;20030;-81
2022/02/01 04:08:00;;;;;;;7.40;4.65;;;1.80;99.90;;;;;;5022905;28;20564;-80
2022/02/01 04:10:26;;;;;;;6.45;5.10;;;1.80;99.90;;;;;;5041807;28;20026;-83
2022/02/01 04:12:52;;;;;;;8.45;5.63;;;1.70;99.90;;;;;;5041722;28;20052;-83
2022/02/01 04:15:21;;;;;;;9.57;5.35;;;1.60;99.90;;;;;;5025079;28;20036;-82
2022/02/01 04:17:47;;;;;;;10.07;5.75;;;1.60;99.90;;;;;;5025021;28;20534;-82
2022/02/01 04:20:13;;;;;;;9.60;6.80;;;1.60;99.90;;;;;;5024895;28;20053;-81
2022/02/01 04:22:39;;;;;;;8.07;5.50;;;1.60;99.90;;;;;;5041887;28;20029;-82
2022/02/01 04:25:05;;;;;;;8.73;5.95;;;1.50;99.90;;;;;;5042838;28;20033;-81
2022/02/01 04:27:31;;;;;;;9.10;6.00;;;1.50;99.90;;;;;;5043049;28;20029;-81
2022/02/01 04:30:06;;;;;;;7.07;4.60;;;1.50;99.90;;;;;;5044443;28;20022;-81
2022/02/01 04:32:37;;;;;;;8.57;5.60;;;1.50;99.90;;;;;;5035480;28;20708;-81
2022/02/01 04:35:04;;;;;;;8.50;4.95;;;1.50;99.90;;;;;;5054431;28;20010;-81
2022/02/01 04:37:31;;;;;;;9.23;5.55;;;1.50;99.90;;;;;;5033076;28;20082;-81
2022/02/01 04:39:57;;;;;;;8.20;5.78;;;1.50;99.90;;;;;;5050813;28;20030;-81
2022/02/01 04:42:25;;;;;;;9.13;5.60;;;1.40;99.90;;;;;;5046292;28;20094;-80
2022/02/01 04:44:51;;;;;;;8.93;5.75;;;1.40;99.90;;;;;;5043078;28;20041;-81
2022/02/01 04:47:17;;;;;;;9.70;5.40;;;1.30;99.90;;;;;;5041457;28;20400;-81
2022/02/01 04:49:43;;;;;;;9.63;5.45;;;1.30;99.90;;;;;;5043817;28;20017;-80
2022/02/01 04:52:08;;;;;;;8.60;6.07;;;1.40;99.90;;;;;;5039129;28;20120;-80
2022/02/01 04:54:34;;;;;;;8.95;5.93;;;1.40;99.90;;;;;;5039968;28;20025;-80
2022/02/01 04:57:00;;;;;;;7.80;5.38;;;1.40;99.90;;;;;;5023055;28;20040;-81
2022/02/01 04:59:26;;;;;;;9.65;5.28;;;1.30;99.90;;;;;;5022373;28;20021;-81
2022/02/01 05:01:51;;;;;;;8.80;5.60;;;1.30;99.90;;;;;;5014609;28;20383;-81
2022/02/01 05:04:20;;;;;;;8.25;5.47;;;1.30;99.90;;;;;;5037330;28;20021;-81
2022/02/01 05:06:52;;;;;;;7.60;5.05;;;1.30;99.90;;;;;;5040231;28;20460;-80
2022/02/01 05:09:17;;;;;;;9.75;6.15;;;1.30;99.90;;;;;;5040523;28;20044;-81
2022/02/01 05:11:44;;;;;;;7.80;5.25;;;1.30;99.90;;;;;;5043531;28;20072;-80
2022/02/01 05:14:16;;;;;;;10.75;5.38;;;1.30;99.90;;;;;;5040136;28;20036;-81
2022/02/01 05:17:01;;;;;;;11.38;4.97;;;1.40;99.90;;;;;;5022474;28;20029;-80
2022/02/01 05:22:06;;;;;;;8.90;6.22;;;1.40;99.90;;;;;;5041102;28;20024;-80
2022/02/01 05:24:34;;;;;;;8.75;5.60;;;1.40;99.90;;;;;;5040207;28;20043;-81
2022/02/01 05:27:01;;;;;;;9.25;5.20;;;1.40;99.90;;;;;;5022756;28;20025;-81
2022/02/01 05:29:27;;;;;;;9.40;5.82;;;1.50;99.90;;;;;;5021980;28;20028;-81
2022/02/01 05:31:53;;;;;;;9.52;5.22;;;1.50;99.90;;;;;;5027864;28;20026;-81
2022/02/01 05:34:20;;;;;;;10.13;5.53;;;1.50;99.90;;;;;;5033213;28;20025;-81
2022/02/01 05:36:46;;;;;;;10.02;5.40;;;1.60;99.90;;;;;;5035907;28;20021;-81
2022/02/01 05:39:21;;;;;;;7.97;5.28;;;1.60;99.90;;;;;;5036591;28;20021;-81
2022/02/01 05:41:49;;;;;;;10.65;5.60;;;1.60;99.90;;;;;;5037455;28;20048;-81
2022/02/01 05:44:15;;;;;;;9.50;5.97;;;1.60;99.90;;;;;;5038211;28;20025;-80
2022/02/01 05:46:42;;;;;;;14.27;5.53;;;1.70;99.90;;;;;;5038297;28;20036;-81
2022/02/01 05:49:08;;;;;;;9.48;5.38;;;1.70;99.90;;;;;;5037267;28;20021;-80
2022/02/01 05:51:34;;;;;;;10.77;6.53;;;1.70;99.90;;;;;;5039988;28;20028;-80
2022/02/01 05:54:01;;;;;;;9.73;6.18;;;1.70;99.90;;;;;;5043098;28;20119;-80
2022/02/01 05:56:27;;;;;;;9.95;6.40;;;1.70;99.90;;;;;;5020883;28;20116;-79
2022/02/01 05:58:53;;;;;;;11.70;6.70;;;1.60;99.90;;;;;;5035190;28;20029;-79
2022/02/01 06:01:20;;;;;;;12.70;7.20;;;1.70;99.90;;;;;;5027243;28;20064;-79
2022/02/01 06:03:46;;;;;;;11.25;7.32;;;1.60;99.90;;;;;;5017404;28;20089;-79
2022/02/01 06:06:12;;;;;;;10.50;6.55;;;1.60;99.90;;;;;;5020370;28;20116;-78
2022/02/01 06:08:38;;;;;;;10.32;6.72;;;1.60;99.90;;;;;;5036219;28;20123;-80
2022/02/01 06:11:04;;;;;;;12.27;6.18;;;1.60;99.90;;;;;;5042282;28;20025;-82
2022/02/01 06:13:29;;;;;;;9.55;6.80;;;1.60;99.90;;;;;;5043072;28;20032;-86
2022/02/01 06:15:55;;;;;;;10.88;6.57;;;1.70;99.90;;;;;;5026459;28;20444;-83
2022/02/01 06:18:21;;;;;;;7.80;5.63;;;1.70;99.90;;;;;;5042787;28;20032;-81
2022/02/01 06:20:47;;;;;;;8.18;5.53;;;1.70;99.90;;;;;;5042289;28;20056;-82
2022/02/01 06:23:14;;;;;;;9.07;5.70;;;1.70;99.90;;;;;;5043170;28;20025;-83
2022/02/01 06:28:09;;;;;;;11.80;6.47;;;1.80;99.90;;;;;;5034560;28;20026;-83
2022/02/01 06:30:35;;;;;;;7.65;5.03;;;1.80;99.90;;;;;;5008351;28;20028;-86
2022/02/01 06:33:01;;;;;;;11.48;5.15;;;1.80;99.90;;;;;;5037804;28;20025;-84
2022/02/01 06:35:29;;;;;;;7.20;4.85;;;1.90;99.90;;;;;;5028063;28;20028;-84
2022/02/01 06:37:55;;;;;;;8.63;5.03;;;1.90;99.90;;;;;;5045462;28;20061;-82
2022/02/01 06:40:21;;;;;;;7.55;4.93;;;1.90;99.90;;;;;;5045050;28;20113;-84
2022/02/01 06:42:47;;;;;;;8.48;5.43;;;1.80;99.90;;;;;;5044903;28;20128;-83
2022/02/01 06:45:13;;;;;;;10.30;5.90;;;1.80;99.90;;;;;;5045711;28;20029;-83
2022/02/01 06:47:39;;;;;;;7.78;6.05;;;1.70;99.90;;;;;;5035715;28;20018;-81
2022/02/01 06:50:06;;;;;;;8.60;6.45;;;1.70;99.90;;;;;;5039627;28;20148;-82
2022/02/01 06:52:32;;;;;;;8.60;5.45;;;1.60;99.90;;;;;;5040258;28;20013;-80
2022/02/01 06:55:01;;;;;;;10.60;6.40;;;1.60;99.90;;;;;;5055919;28;20033;-81
2022/02/01 06:57:27;;;;;;;9.18;5.53;;;1.50;99.90;;;;;;5056290;28;20018;-81
2022/02/01 06:59:53;;;;;;;12.90;6.07;;;1.50;99.90;;;;;;5034943;28;20014;-82
2022/02/01 07:02:19;;;;;;;8.75;6.00;;;1.40;99.90;;;;;;5041036;28;20094;-83
2022/02/01 07:04:46;;;;;;;10.35;5.35;;;1.50;99.90;;;;;;5027810;28;20057;-82
2022/02/01 07:07:12;;;;;;;7.93;5.07;;;1.50;99.90;;;;;;5027510;28;20093;-82
2022/02/01 07:09:39;;;;;;;7.03;3.90;;;1.50;99.90;;;;;;5019497;28;20053;-81
2022/02/01 07:12:05;;;;;;;10.75;3.72;;;1.60;99.90;;;;;;5018789;28;20053;-82
2022/02/01 07:14:31;;;;;;;7.05;3.42;;;1.60;99.90;;;;;;5019296;28;20087;-82
2022/02/01 07:16:57;;;;;;;6.80;3.35;;;1.70;99.90;;;;;;5020781;28;20415;-81
2022/02/01 07:19:23;;;;;;;7.30;3.30;;;1.70;99.90;;;;;;5020889;28;20053;-82
2022/02/01 07:21:49;;;;;;;6.60;3.90;;;1.70;99.90;;;;;;5021365;28;20017;-81
2022/02/01 07:24:25;;;;;;;9.82;3.67;;;1.70;99.90;;;;;;5021442;28;20049;-83
2022/02/01 07:26:56;;;;;;;5.90;3.40;;;1.70;99.90;;;;;;5020229;28;20022;-82
2022/02/01 07:29:22;;;;;;;15.68;5.35;;;1.70;99.90;;;;;;5035209;28;20090;-79
2022/02/01 07:31:48;;;;;;;9.18;3.63;;;1.70;99.90;;;;;;5026908;28;20033;-81
2022/02/01 07:34:15;;;;;;;14.05;4.25;;;1.70;99.90;;;;;;5024193;28;20085;-80
2022/02/01 07:36:42;;;;;;;15.57;5.35;;;1.70;99.90;;;;;;5041180;28;20029;-83
2022/02/01 07:39:08;;;;;;;17.23;4.75;;;1.80;99.90;;;;;;5022257;28;20037;-82
2022/02/01 07:41:34;;;;;;;22.80;4.50;;;1.70;99.90;;;;;;5022726;28;20030;-82
2022/02/01 07:44:00;;;;;;;17.75;4.78;;;1.80;99.90;;;;;;5024091;28;20079;-82
2022/02/01 07:46:28;;;;;;;25.42;5.20;;;1.80;99.90;;;;;;5041243;28;20044;-83
2022/02/01 07:48:54;;;;;;;22.13;3.90;;;1.80;99.90;;;;;;5023250;28;20029;-82
2022/02/01 07:51:20;;;;;;;17.33;4.53;;;1.80;99.90;;;;;;5023458;28;20033;-82
2022/02/01 07:53:46;;;;;;;18.27;3.78;;;1.80;99.90;;;;;;5023545;28;20478;-83
2022/02/01 07:56:11;;;;;;;14.68;4.15;;;1.80;99.90;;;;;;5041431;28;20512;-78
2022/02/01 07:58:37;;;;;;;25.90;4.07;;;1.80;99.90;;;;;;5028603;28;20059;-78
2022/02/01 08:01:03;;;;;;;16.00;3.90;;;1.70;99.90;;;;;;5029215;28;20038;-77
2022/02/01 08:03:29;;;;;;;13.40;3.72;;;1.70;99.90;;;;;;5028893;28;20038;-79
2022/02/01 08:05:54;;;;;;;20.33;5.18;;;1.70;99.90;;;;;;5030265;28;20081;-79
2022/02/01 08:08:20;;;;;;;14.80;3.53;;;1.70;99.90;;;;;;5029356;28;20026;-80
2022/02/01 08:10:50;;;;;;;14.02;3.20;;;1.60;99.90;;;;;;5032403;28;20160;-78
2022/02/01 08:19:01;;;;;;;18.42;3.90;;;1.60;99.90;;;;;;5023091;28;20044;-78
2022/02/01 08:21:29;;;;;;;16.63;3.85;;;1.60;99.90;;;;;;5019920;28;20390;-82
2022/02/01 08:23:56;;;;;;;20.88;4.32;;;1.50;99.90;;;;;;5020614;28;20026;-83
2022/02/01 08:26:25;;;;;;;25.67;3.80;;;1.50;99.90;;;;;;5015340;28;20101;-80
2022/02/01 08:28:51;;;;;;;17.58;4.03;;;1.50;99.90;;;;;;5016553;28;20025;-81
2022/02/01 08:31:17;;;;;;;22.83;3.80;;;1.60;99.90;;;;;;5032671;28;20113;-82
2022/02/01 08:33:43;;;;;;;22.30;3.33;;;1.60;99.90;;;;;;5034909;28;20029;-79
2022/02/01 08:36:09;;;;;;;21.25;3.50;;;1.60;99.90;;;;;;5023375;28;20025;-81
2022/02/01 08:38:35;;;;;;;26.95;4.07;;;1.70;99.90;;;;;;5040153;28;20026;-79
2022/02/01 08:41:01;;;;;;;20.55;4.00;;;1.70;99.90;;;;;;5023764;28;20025;-81
2022/02/01 08:43:27;;;;;;;19.45;3.47;;;1.70;99.90;;;;;;5024498;28;20026;-81
2022/02/01 08:45:54;;;;;;;16.98;3.72;;;1.70;99.90;;;;;;5041352;28;20056;-81
2022/02/01 08:48:20;;;;;;;17.98;3.22;;;1.70;99.90;;;;;;5041170;28;20025;-79
2022/02/01 08:50:46;;;;;;;18.10;3.40;;;1.70;99.90;;;;;;5041873;28;20446;-81
2022/02/01 08:53:23;;;;;;;16.38;3.22;;;1.70;99.90;;;;;;5025733;28;20459;-81
2022/02/01 08:58:21;;;;;;;15.35;3.72;;;1.80;99.90;;;;;;5043085;28;20094;-80
2022/02/01 09:00:47;;;;;;;15.45;3.08;;;1.80;99.90;;;;;;5016754;28;20036;-79
2022/02/01 09:03:13;;;;;;;17.27;3.63;;;1.80;99.90;;;;;;5024703;28;20029;-81
2022/02/01 09:05:49;;;;;;;17.25;3.55;;;1.80;99.90;;;;;;5041923;28;20032;-80
2022/02/01 09:08:15;;;;;;;18.83;3.45;;;1.80;99.70;;;;;;5042918;28;20029;-79
2022/02/01 09:10:42;;;;;;;13.32;3.20;;;1.80;99.60;;;;;;5027072;28;20029;-79
2022/02/01 09:13:08;;;;;;;17.17;3.10;;;1.70;99.90;;;;;;5026526;28;20394;-80
2022/02/01 09:15:37;;;;;;;20.77;3.40;;;1.80;99.70;;;;;;5041798;28;20029;-81
2022/02/01 09:18:03;;;;;;;17.85;2.95;;;1.90;99.40;;;;;;5040836;28;20034;-84
2022/02/01 09:20:30;;;;;;;26.35;3.05;;;1.90;99.30;;;;;;5022478;28;20075;-83
2022/02/01 09:22:56;;;;;;;13.68;2.95;;;1.90;99.60;;;;;;5040939;28;20029;-82
2022/02/01 09:25:22;;;;;;;17.17;2.85;;;1.90;99.40;;;;;;5041093;28;20026;-84
2022/02/01 09:27:49;;;;;;;19.42;3.05;;;1.90;99.40;;;;;;5041632;28;20026;-85
2022/02/01 09:30:17;;;;;;;8.95;2.60;;;1.90;99.40;;;;;;5034842;28;20028;-83
2022/02/01 09:32:44;;;;;;;21.75;4.00;;;1.90;99.40;;;;;;5023817;28;20026;-80
2022/02/01 09:35:10;;;;;;;14.57;2.50;;;2.00;99.00;;;;;;5021275;28;20021;-79
2022/02/01 09:37:36;;;;;;;19.10;2.92;;;2.00;98.70;;;;;;5040636;28;20021;-79
2022/02/01 09:40:04;;;;;;;8.90;2.22;;;2.10;99.30;;;;;;5020540;28;20056;-84
2022/02/01 09:42:30;;;;;;;16.23;3.15;;;2.10;98.80;;;;;;5023525;28;20039;-80
2022/02/01 09:44:57;;;;;;;13.35;2.50;;;2.20;99.50;;;;;;5041168;28;20052;-82
2022/02/01 09:47:34;;;;;;;15.88;2.75;;;2.30;99.60;;;;;;5043013;28;20033;-79
2022/02/01 09:50:00;;;;;;;18.17;2.58;;;2.40;99.60;;;;;;5041662;28;20017;-80
2022/02/01 09:52:27;;;;;;;18.50;2.67;;;2.50;98.40;;;;;;5024183;28;20028;-79
2022/02/01 09:54:54;;;;;;;10.13;2.20;;;2.50;98.10;;;;;;5042764;28;20018;-79
2022/02/01 09:57:21;;;;;;;10.27;2.55;;;2.50;98.80;;;;;;5044154;28;20033;-81
2022/02/01 09:59:59;;;;;;;24.38;2.67;;;2.60;98.50;;;;;;5045333;28;20053;-81
2022/02/01 10:02:40;;;;;;;10.15;3.28;;;2.60;97.90;;;;;;5034616;28;20033;-83
2022/02/01 10:05:11;;;;;;;15.18;3.25;;;2.60;98.00;;;;;;5029157;28;20101;-81
2022/02/01 10:07:52;;;;;;;16.95;2.78;;;2.60;98.00;;;;;;5033094;28;20048;-78
2022/02/01 10:10:20;;;;;;;13.65;3.15;;;2.60;97.20;;;;;;5051049;28;20480;-84
2022/02/01 10:13:08;;;;;;;12.32;2.33;;;2.60;98.00;;;;;;5047624;28;20041;-83
2022/02/01 10:15:34;;;;;;;10.93;1.92;;;2.70;97.70;;;;;;5027075;28;20033;-82
2022/02/01 10:18:03;;;;;;;20.27;2.28;;;2.70;96.90;;;;;;5028960;28;20021;-81
2022/02/01 10:20:34;;;;;;;13.50;2.15;;;2.70;97.40;;;;;;5037799;28;20020;-78
2022/02/01 10:23:00;;;;;;;18.83;2.17;;;2.70;96.90;;;;;;5041118;28;20018;-81
2022/02/01 10:25:30;;;;;;;11.75;2.35;;;2.60;96.10;;;;;;5033852;28;20049;-83
2022/02/01 10:28:00;;;;;;;21.50;2.60;;;2.60;96.60;;;;;;5044907;28;20097;-83
2022/02/01 10:30:36;;;;;;;21.60;3.47;;;2.50;96.10;;;;;;5038265;28;20028;-83
2022/02/01 10:37:59;;;;;;;14.68;3.05;;;2.70;96.30;;;;;;5044779;28;20028;-84
2022/02/01 10:40:45;;;;;;;11.55;2.63;;;2.80;96.20;;;;;;5045934;28;20036;-83
2022/02/01 10:43:25;;;;;;;10.80;2.58;;;3.00;95.00;;;;;;5038290;28;20029;-82
2022/02/01 10:45:53;;;;;;;13.60;1.73;;;3.10;95.30;;;;;;5056146;28;20038;-81
2022/02/01 10:48:23;;;;;;;12.68;2.00;;;3.30;94.60;;;;;;5058820;28;20116;-80
2022/02/01 10:51:07;;;;;;;11.05;1.90;;;3.30;94.00;;;;;;5055523;28;20071;-84
2022/02/01 10:53:34;;;;;;;11.05;2.60;;;3.30;94.70;;;;;;5047318;28;20492;-85
2022/02/01 10:56:03;;;;;;;7.75;2.20;;;3.40;94.60;;;;;;4999489;28;20026;-85
2022/02/01 10:58:29;;;;;;;9.60;2.00;;;3.50;93.50;;;;;;5044925;28;20025;-84
2022/02/01 11:00:57;;;;;;;12.07;1.90;;;3.40;93.80;;;;;;5022874;28;20030;-83
2022/02/01 11:03:23;;;;;;;13.75;2.35;;;3.40;93.10;;;;;;5025961;28;20482;-83
2022/02/01 11:05:52;;;;;;;13.10;2.33;;;3.50;92.90;;;;;;5026990;28;20022;-82
2022/02/01 11:08:22;;;;;;;11.40;2.13;;;3.50;92.50;;;;;;5026245;28;20037;-83
2022/02/01 11:10:53;;;;;;;7.05;1.63;;;3.50;92.20;;;;;;5026926;28;20029;-82
2022/02/01 11:13:19;;;;;;;12.10;2.30;;;3.50;92.30;;;;;;5025919;28;20032;-83
2022/02/01 11:16:18;;;;;;;8.93;1.90;;;3.60;91.60;;;;;;5027380;28;20085;-83
2022/02/01 11:19:01;;;;;;;9.55;1.88;;;3.60;90.70;;;;;;5003647;28;20078;-82
2022/02/01 11:21:28;;;;;;;7.95;1.60;;;3.60;90.70;;;;;;5045725;28;20018;-83
2022/02/01 11:26:35;;;;;;;7.68;2.00;;;3.60;91.40;;;;;;5056314;28;20033;-82
2022/02/01 11:31:56;;;;;;;5.60;1.60;;;3.70;90.40;;;;;;5043889;28;20025;-81
2022/02/01 11:34:37;;;;;;;5.35;1.65;;;3.80;90.60;;;;;;5038146;28;20018;-79
2022/02/01 11:37:10;;;;;;;13.27;1.75;;;3.80;90.80;;;;;;5027864;28;20032;-82
2022/02/01 11:39:51;;;;;;;4.13;1.25;;;3.90;91.10;;;;;;5026153;28;20452;-80
2022/02/01 11:42:20;;;;;;;7.32;1.42;;;4.00;91.40;;;;;;5039334;28;20084;-80
2022/02/01 11:44:47;;;;;;;4.82;1.60;;;4.20;90.60;;;;;;5016781;28;20026;-81
2022/02/01 11:47:21;;;;;;;10.40;1.88;;;4.40;90.90;;;;;;5002610;28;20030;-81
2022/02/01 11:49:59;;;;;;;13.30;1.67;;;4.50;89.30;;;;;;5004724;28;20032;-83
2022/02/01 11:52:27;;;;;;;4.82;1.13;;;4.50;89.50;;;;;;5021897;28;20032;-81
2022/02/01 11:55:07;;;;;;;11.43;2.55;;;4.40;89.60;;;;;;5020552;28;20026;-79
2022/02/01 11:57:34;;;;;;;11.65;2.28;;;4.40;90.20;;;;;;5020358;28;20053;-81
2022/02/01 12:00:07;;;;;;;5.10;1.35;;;4.40;89.00;;;;;;5021139;28;20049;-81
2022/02/01 12:02:41;;;;;;;6.32;1.77;;;4.30;90.20;;;;;;5034884;28;20029;-84
2022/02/01 12:05:35;;;;;;;7.15;1.73;;;4.40;90.10;;;;;;5027098;28;20045;-84
2022/02/01 12:08:10;;;;;;;5.45;1.70;;;4.50;88.80;;;;;;5024586;28;20049;-85
2022/02/01 12:10:48;;;;;;;8.57;1.50;;;4.60;88.50;;;;;;5028874;28;20462;-82
2022/02/01 12:13:16;;;;;;;5.78;1.42;;;4.60;88.00;;;;;;5043365;28;20139;-82
2022/02/01 12:15:45;;;;;;;8.10;1.70;;;4.60;87.20;;;;;;5037613;28;20029;-80
2022/02/01 12:18:43;;;;;;;9.40;1.70;;;4.60;88.00;;;;;;5022476;28;20368;-80
2022/02/01 12:21:31;;;;;;;5.32;1.77;;;4.70;88.20;;;;;;5006727;28;20034;-84
2022/02/01 12:24:00;;;;;;;7.72;1.58;;;4.70;87.90;;;;;;5006315;28;20068;-84
2022/02/01 12:26:29;;;;;;;4.65;1.45;;;4.70;87.80;;;;;;5006883;28;20037;-82
2022/02/01 12:28:58;;;;;;;7.60;2.05;;;4.70;86.80;;;;;;5007973;28;20026;-83
2022/02/01 12:31:27;;;;;;;14.35;2.45;;;4.70;87.20;;;;;;5014658;28;20021;-85
2022/02/01 12:33:56;;;;;;;5.15;1.13;;;4.70;85.90;;;;;;5025578;28;20026;-83
2022/02/01 12:36:27;;;;;;;7.07;1.52;;;4.70;86.20;;;;;;5046421;28;20048;-81
2022/02/01 12:39:00;;;;;;;6.75;2.33;;;4.60;87.40;;;;;;5043541;28;20040;-83
2022/02/01 12:41:31;;;;;;;2.95;1.30;;;4.60;87.40;;;;;;5046471;28;20041;-82
2022/02/01 12:46:53;;;;;;;7.32;1.80;;;4.50;87.00;;;;;;5049815;28;20025;-83
2022/02/01 12:49:44;;;;;;;4.50;1.50;;;4.40;87.90;;;;;;5029743;28;20040;-85
2022/02/01 12:52:29;;;;;;;7.22;1.50;;;4.30;88.40;;;;;;5007792;28;20474;-83
2022/02/01 12:55:07;;;;;;;5.68;1.58;;;4.10;90.00;;;;;;5008134;28;20033;-82
2022/02/01 12:57:35;;;;;;;10.05;1.35;;;4.10;90.20;;;;;;5026128;28;20438;-83
2022/02/01 13:00:10;;;;;;;5.22;1.40;;;4.00;90.80;;;;;;5006329;28;20030;-81
2022/02/01 13:02:36;;;;;;;6.65;1.70;;;3.90;91.30;;;;;;5024989;28;20017;-82
2022/02/01 13:05:06;;;;;;;3.53;1.40;;;3.80;91.30;;;;;;5025337;28;20030;-83
2022/02/01 13:21:21;;;;;;;8.02;1.80;;;3.40;94.80;;;;;;5048284;28;20023;-82
2022/02/01 13:23:54;;;;;;;4.55;1.20;;;3.40;94.30;;;;;;5032044;28;20036;-84
2022/02/01 13:26:26;;;;;;;8.52;1.63;;;3.30;94.60;;;;;;5029799;28;20025;-82
2022/02/01 13:29:12;;;;;;;7.63;1.40;;;3.30;94.30;;;;;;5041696;28;20030;-82
2022/02/01 13:31:51;;;;;;;5.97;1.83;;;3.30;93.50;;;;;;5038860;28;20178;-83
2022/02/01 13:34:27;;;;;;;9.40;1.75;;;3.30;93.40;;;;;;5027479;28;20073;-84
2022/02/01 13:37:00;;;;;;;6.68;1.48;;;3.30;93.10;;;;;;5045870;28;20029;-84
2022/02/01 13:39:30;;;;;;;3.08;1.00;;;3.30;92.90;;;;;;5040067;28;20017;-83
2022/02/01 13:41:59;;;;;;;6.75;1.63;;;3.20;93.20;;;;;;5024082;28;20029;-83
2022/02/01 13:44:24;;;;;;;4.10;1.52;;;3.30;93.10;;;;;;5042228;28;20400;-84
2022/02/01 13:47:07;;;;;;;6.88;1.58;;;3.30;92.70;;;;;;5041918;28;20072;-84
2022/02/01 13:49:34;;;;;;;6.82;1.20;;;3.40;92.20;;;;;;5027813;28;20030;-84
2022/02/01 13:52:00;;;;;;;11.25;1.85;;;3.40;92.00;;;;;;5037698;28;20032;-82
2022/02/01 13:54:37;;;;;;;4.03;1.40;;;3.40;91.30;;;;;;5044371;28;20036;-84
2022/02/01 13:57:15;;;;;;;5.30;1.38;;;3.40;91.30;;;;;;5005200;28;20076;-82
2022/02/01 13:59:41;;;;;;;4.22;1.23;;;3.30;91.20;;;;;;5005572;28;20041;-84
2022/02/01 14:02:19;;;;;;;5.80;1.42;;;3.20;91.50;;;;;;5018488;28;20029;-83
2022/02/01 14:04:52;;;;;;;6.65;1.67;;;3.20;91.70;;;;;;5004894;28;20014;-84
2022/02/01 14:07:34;;;;;;;3.47;1.40;;;3.10;92.10;;;;;;4986530;28;20090;-84
2022/02/01 14:28:49;;;;;;;3.15;1.17;;;3.00;92.60;;;;;;5038818;28;20043;-79
2022/02/01 14:34:15;;;;;;;7.97;1.52;;;3.00;92.40;;;;;;5038636;28;20144;-83
2022/02/01 14:36:43;;;;;;;4.22;1.58;;;3.10;91.50;;;;;;5043515;28;20018;-82
2022/02/01 14:47:03;;;;;;;4.40;0.98;;;3.00;91.20;;;;;;5026174;28;20052;-81
2022/02/01 14:49:29;;;;;;;5.22;1.27;;;2.90;91.60;;;;;;5028219;28;20029;-82
2022/02/01 14:51:57;;;;;;;4.65;1.20;;;2.90;92.10;;;;;;5027302;28;20414;-82
2022/02/01 14:54:31;;;;;;;3.45;1.00;;;3.00;91.70;;;;;;5011023;28;20037;-82
2022/02/01 15:03:41;;;;;;;6.43;1.63;;;3.00;91.90;;;;;;5015193;28;20025;-83
2022/02/01 15:05:38;;;;;;;3.10;0.98;;;2.70;93.50;;;;;;5054016;28;20040;-84
2022/02/01 15:13:22;;;;;;;4.63;0.82;;;2.40;95.90;;;;;;5043200;28;20036;-82
2022/02/01 15:15:48;;;;;;;5.45;0.80;;;2.30;96.00;;;;;;5040277;28;20026;-82
2022/02/01 15:18:14;;;;;;;4.50;0.85;;;2.30;95.80;;;;;;5041732;28;20031;-83
2022/02/01 15:20:40;;;;;;;1.70;0.60;;;2.30;96.00;;;;;;5023262;28;20439;-82
2022/02/01 15:23:06;;;;;;;2.20;1.10;;;2.20;96.10;;;;;;5026097;28;20021;-80
2022/02/01 15:25:32;;;;;;;2.97;0.75;;;2.20;96.30;;;;;;5053387;28;20021;-82
2022/02/01 15:27:58;;;;;;;2.70;0.90;;;2.10;96.50;;;;;;5055376;28;20044;-81
2022/02/01 15:30:24;;;;;;;3.83;1.00;;;2.10;96.30;;;;;;5044402;28;20018;-80
2022/02/01 15:32:52;;;;;;;4.10;0.90;;;2.10;96.70;;;;;;5042138;28;20489;-81
2022/02/01 15:35:18;;;;;;;3.72;1.08;;;2.10;96.80;;;;;;5042814;28;20057;-80